Time;durP1;ratioP1;P1;durP2;ratioP2;P2;SDS_P1;SDS_P2;PMS_P1;PMS_P2;Temp;Humidity;BMP_temperature;BMP_pressure;BME280_temperature;BME280_humidity;BME280_pressure;Samples;Min_cycle;Max_cycle;Signal;HPM_P1;HPM_P2
2024/02/16 00:01:01;;;;;;;5.38;3.83;;;7.50;99.90;;;;;;5019430;28;20270;-74
2024/02/16 00:03:28;;;;;;;4.72;4.32;;;7.50;99.90;;;;;;5018985;28;20269;-74
2024/02/16 00:05:55;;;;;;;4.50;4.10;;;7.40;99.90;;;;;;5020153;28;20259;-74
2024/02/16 00:08:22;;;;;;;4.32;3.92;;;7.40;99.90;;;;;;5019427;28;20707;-74
2024/02/16 00:10:50;;;;;;;4.70;4.28;;;7.40;99.90;;;;;;5019023;28;20298;-74
2024/02/16 00:13:17;;;;;;;4.13;3.80;;;7.40;99.90;;;;;;5015307;28;20802;-75
2024/02/16 00:15:45;;;;;;;4.47;4.07;;;7.30;99.90;;;;;;4997476;28;20265;-75
2024/02/16 00:18:12;;;;;;;4.65;4.15;;;7.40;99.90;;;;;;5004086;28;20280;-75
2024/02/16 00:20:39;;;;;;;5.00;4.30;;;7.30;99.90;;;;;;4999525;28;20223;-75
2024/02/16 00:23:06;;;;;;;4.30;3.92;;;7.30;99.90;;;;;;5020634;28;20212;-75
2024/02/16 00:25:34;;;;;;;4.25;3.85;;;7.30;99.90;;;;;;5016794;28;20727;-75
2024/02/16 00:28:03;;;;;;;4.72;4.28;;;7.30;99.90;;;;;;5019684;28;20353;-75
2024/02/16 00:30:30;;;;;;;4.50;4.10;;;7.30;99.90;;;;;;5014097;28;20219;-74
2024/02/16 00:32:57;;;;;;;5.47;4.75;;;7.30;99.90;;;;;;5002262;28;20710;-74
2024/02/16 00:35:24;;;;;;;4.32;3.90;;;7.30;99.90;;;;;;5018757;28;20246;-73
2024/02/16 00:37:51;;;;;;;4.47;4.07;;;7.20;99.90;;;;;;5038711;28;20276;-74
2024/02/16 00:40:18;;;;;;;4.25;3.95;;;7.20;99.90;;;;;;5027051;28;20214;-73
2024/02/16 00:42:45;;;;;;;4.00;3.72;;;7.20;99.90;;;;;;5024917;28;20273;-73
2024/02/16 00:45:14;;;;;;;4.38;3.97;;;7.20;99.90;;;;;;5018341;28;20231;-73
2024/02/16 00:47:41;;;;;;;4.32;4.03;;;7.10;99.90;;;;;;5015193;28;20337;-73
2024/02/16 00:50:09;;;;;;;4.75;4.35;;;7.20;99.90;;;;;;5015397;28;20246;-75
2024/02/16 00:52:36;;;;;;;3.80;3.45;;;7.10;99.90;;;;;;5017072;28;20679;-74
2024/02/16 00:55:04;;;;;;;4.18;3.85;;;7.10;99.90;;;;;;5021407;28;20362;-75
2024/02/16 00:57:33;;;;;;;3.90;3.60;;;7.10;99.90;;;;;;5016037;28;20319;-74
2024/02/16 01:00:00;;;;;;;3.70;3.40;;;7.10;99.90;;;;;;5020928;28;20216;-74
2024/02/16 01:02:28;;;;;;;3.55;3.25;;;7.00;99.90;;;;;;5023090;28;20223;-74
2024/02/16 01:05:01;;;;;;;3.78;3.47;;;7.00;99.90;;;;;;5021711;28;20219;-74
2024/02/16 01:07:28;;;;;;;3.65;3.35;;;7.00;99.90;;;;;;5001853;28;20302;-74
2024/02/16 01:09:56;;;;;;;3.97;3.67;;;7.00;99.90;;;;;;5016598;28;20223;-74
2024/02/16 01:12:23;;;;;;;4.20;3.80;;;7.00;99.90;;;;;;5016441;28;20224;-74
2024/02/16 01:14:50;;;;;;;3.55;3.20;;;7.00;99.90;;;;;;5022256;28;20800;-74
2024/02/16 01:17:17;;;;;;;3.35;3.10;;;7.00;99.90;;;;;;5018786;28;20215;-74
2024/02/16 01:19:46;;;;;;;3.50;3.30;;;6.90;99.90;;;;;;5020424;28;20224;-74
2024/02/16 01:22:13;;;;;;;3.25;3.05;;;6.90;99.90;;;;;;5018093;28;20220;-74
2024/02/16 01:24:40;;;;;;;3.70;3.50;;;6.90;99.90;;;;;;5022888;28;20231;-75
2024/02/16 01:27:07;;;;;;;3.10;2.90;;;6.90;99.90;;;;;;5023142;28;20242;-74
2024/02/16 01:29:34;;;;;;;3.38;3.17;;;6.90;99.90;;;;;;5017267;28;20248;-74
2024/02/16 01:32:01;;;;;;;3.72;3.42;;;6.90;99.90;;;;;;5018751;28;20247;-74
2024/02/16 01:34:30;;;;;;;3.47;3.28;;;6.90;99.90;;;;;;5020470;28;20705;-74
2024/02/16 01:36:58;;;;;;;3.63;3.22;;;6.90;99.90;;;;;;4994685;28;20228;-74
2024/02/16 01:39:25;;;;;;;3.30;3.10;;;6.80;99.90;;;;;;5018883;28;20204;-75
2024/02/16 01:41:53;;;;;;;3.80;3.50;;;6.80;99.90;;;;;;5020855;28;20239;-75
2024/02/16 01:44:20;;;;;;;3.60;3.30;;;6.80;99.90;;;;;;5016363;28;20236;-75
2024/02/16 01:46:47;;;;;;;3.53;3.22;;;6.90;99.90;;;;;;5004519;28;20245;-75
2024/02/16 01:49:14;;;;;;;3.80;3.50;;;6.80;99.90;;;;;;5018316;28;20220;-75
2024/02/16 01:51:44;;;;;;;4.18;3.88;;;6.80;99.90;;;;;;5019254;28;20292;-75
2024/02/16 01:54:13;;;;;;;3.60;3.40;;;6.80;99.90;;;;;;5023206;28;20208;-75
2024/02/16 01:56:40;;;;;;;2.92;2.72;;;6.80;99.90;;;;;;5016524;28;20702;-76
2024/02/16 01:59:07;;;;;;;3.90;3.60;;;6.80;99.90;;;;;;5019330;28;20242;-75
2024/02/16 02:01:34;;;;;;;3.47;3.17;;;6.80;99.90;;;;;;5017777;28;20796;-75
2024/02/16 02:04:01;;;;;;;3.50;3.20;;;6.80;99.90;;;;;;5022555;28;20255;-75
2024/02/16 02:06:28;;;;;;;3.33;3.13;;;6.80;99.90;;;;;;5020848;28;20850;-76
2024/02/16 02:08:55;;;;;;;3.13;2.83;;;6.80;99.90;;;;;;5019435;28;20235;-74
2024/02/16 02:11:24;;;;;;;3.47;3.20;;;6.80;99.90;;;;;;5019281;28;20304;-75
2024/02/16 02:13:51;;;;;;;3.33;3.13;;;6.70;99.90;;;;;;5005913;28;20286;-75
2024/02/16 02:16:19;;;;;;;3.20;3.00;;;6.80;99.90;;;;;;5017347;28;20255;-76
2024/02/16 02:18:46;;;;;;;3.28;3.08;;;6.70;99.90;;;;;;5017275;28;20207;-76
2024/02/16 02:21:14;;;;;;;3.58;3.30;;;6.70;99.90;;;;;;5000362;28;20224;-75
2024/02/16 02:23:42;;;;;;;3.30;3.00;;;6.70;99.90;;;;;;5017432;28;20207;-75
2024/02/16 02:26:09;;;;;;;3.63;3.42;;;6.70;99.90;;;;;;5018950;28;20321;-75
2024/02/16 02:28:36;;;;;;;3.17;2.97;;;6.60;99.90;;;;;;5017097;28;20232;-75
2024/02/16 02:31:03;;;;;;;3.20;3.00;;;6.60;99.90;;;;;;5017162;28;20326;-75
2024/02/16 02:33:30;;;;;;;3.25;3.05;;;6.60;99.90;;;;;;5014022;28;20850;-75
2024/02/16 02:35:57;;;;;;;2.92;2.72;;;6.60;99.90;;;;;;5002414;28;20697;-75
2024/02/16 02:38:26;;;;;;;3.35;3.15;;;6.60;99.90;;;;;;5018744;28;20252;-75
2024/02/16 02:40:54;;;;;;;3.38;3.17;;;6.60;99.90;;;;;;5016021;28;20311;-75
2024/02/16 02:43:22;;;;;;;3.55;3.35;;;6.60;99.90;;;;;;5018108;28;20255;-75
2024/02/16 02:45:49;;;;;;;3.35;3.05;;;6.50;99.90;;;;;;5018206;28;20904;-76
2024/02/16 02:48:16;;;;;;;3.33;3.10;;;6.50;99.90;;;;;;5019388;28;20231;-75
2024/02/16 02:50:43;;;;;;;3.45;3.25;;;6.50;99.90;;;;;;5012351;28;20243;-75
2024/02/16 02:53:09;;;;;;;2.95;2.75;;;6.50;99.90;;;;;;5022383;28;20218;-75
2024/02/16 02:55:36;;;;;;;3.30;3.10;;;6.50;99.90;;;;;;5014188;28;20616;-75
2024/02/16 02:58:04;;;;;;;3.20;3.00;;;6.50;99.90;;;;;;5017589;28;20215;-75
2024/02/16 03:00:31;;;;;;;3.50;3.30;;;6.50;99.90;;;;;;5017168;28;20279;-75
2024/02/16 03:02:58;;;;;;;3.20;3.00;;;6.50;99.90;;;;;;5023470;28;20728;-74
2024/02/16 03:05:25;;;;;;;3.65;3.45;;;6.40;99.90;;;;;;5017338;28;20255;-74
2024/02/16 03:07:52;;;;;;;3.30;3.10;;;6.40;99.90;;;;;;5009712;28;20255;-74
2024/02/16 03:10:21;;;;;;;3.28;3.08;;;6.40;99.90;;;;;;5016532;28;20266;-75
2024/02/16 03:12:49;;;;;;;3.60;3.40;;;6.40;99.90;;;;;;5021476;28;20216;-74
2024/02/16 03:15:18;;;;;;;3.33;3.13;;;6.40;99.90;;;;;;4986712;28;20686;-74
2024/02/16 03:17:45;;;;;;;3.17;2.97;;;6.40;99.90;;;;;;5019147;28;20219;-74
2024/02/16 03:20:12;;;;;;;2.97;2.78;;;6.40;99.90;;;;;;4996969;28;20235;-74
2024/02/16 03:22:39;;;;;;;3.20;3.00;;;6.40;99.90;;;;;;5022765;28;20223;-74
2024/02/16 03:25:06;;;;;;;3.22;3.03;;;6.30;99.90;;;;;;5000115;28;20321;-74
2024/02/16 03:27:33;;;;;;;3.60;3.35;;;6.30;99.90;;;;;;4994983;28;20219;-74
2024/02/16 03:30:02;;;;;;;3.22;3.03;;;6.30;99.90;;;;;;5019033;28;20223;-74
2024/02/16 03:32:30;;;;;;;3.42;3.22;;;6.30;99.90;;;;;;5015058;28;20724;-74
2024/02/16 03:34:58;;;;;;;3.13;2.92;;;6.30;99.90;;;;;;5013723;28;20240;-75
2024/02/16 03:37:25;;;;;;;3.15;2.85;;;6.30;99.90;;;;;;5017028;28;20220;-75
2024/02/16 03:39:53;;;;;;;3.78;3.53;;;6.30;99.90;;;;;;5017803;28;20270;-75
2024/02/16 03:42:20;;;;;;;3.60;3.30;;;6.30;99.90;;;;;;5012128;28;20224;-75
2024/02/16 03:44:47;;;;;;;3.30;3.10;;;6.30;99.90;;;;;;4997946;28;20227;-75
2024/02/16 03:47:14;;;;;;;3.17;2.97;;;6.30;99.90;;;;;;5014864;28;20716;-75
2024/02/16 03:49:44;;;;;;;3.35;3.13;;;6.20;99.90;;;;;;5018882;28;20199;-75
2024/02/16 03:52:11;;;;;;;3.60;3.35;;;6.20;99.90;;;;;;5020454;28;20289;-75
2024/02/16 03:54:37;;;;;;;3.63;3.42;;;6.20;99.90;;;;;;4999950;28;20304;-74
2024/02/16 03:57:09;;;;;;;3.25;3.05;;;6.20;99.90;;;;;;5016044;28;20305;-74
2024/02/16 03:59:36;;;;;;;3.17;2.97;;;6.20;99.90;;;;;;5016236;28;20203;-74
2024/02/16 04:02:03;;;;;;;3.25;2.97;;;6.20;99.90;;;;;;5019456;28;20251;-74
2024/02/16 04:04:30;;;;;;;3.20;3.00;;;6.20;99.90;;;;;;5016371;28;20286;-74
2024/02/16 04:06:58;;;;;;;3.08;2.88;;;6.20;99.90;;;;;;5016527;28;20282;-74
2024/02/16 04:09:25;;;;;;;3.00;2.80;;;6.10;99.90;;;;;;5019848;28;20290;-74
2024/02/16 04:11:52;;;;;;;3.15;2.83;;;6.10;99.90;;;;;;5020482;28;20656;-74
2024/02/16 04:14:19;;;;;;;3.13;2.92;;;6.10;99.90;;;;;;5019220;28;20604;-74
2024/02/16 04:16:46;;;;;;;2.97;2.78;;;6.00;99.90;;;;;;5010970;28;20292;-74
2024/02/16 04:19:12;;;;;;;3.40;3.10;;;6.00;99.90;;;;;;5019132;28;20203;-74
2024/02/16 04:21:39;;;;;;;3.22;3.03;;;6.00;99.90;;;;;;5017885;28;20256;-74
2024/02/16 04:24:09;;;;;;;2.90;2.70;;;6.00;99.90;;;;;;5016976;28;20665;-74
2024/02/16 04:26:36;;;;;;;3.10;2.90;;;5.90;99.90;;;;;;5018852;28;20254;-74
2024/02/16 04:29:05;;;;;;;3.33;3.13;;;5.90;99.90;;;;;;5015197;28;20874;-74
2024/02/16 04:31:32;;;;;;;3.22;3.03;;;5.90;99.90;;;;;;5019498;28;20246;-74
2024/02/16 04:33:59;;;;;;;3.20;3.00;;;5.90;99.90;;;;;;5018739;28;20207;-74
2024/02/16 04:36:26;;;;;;;3.10;2.90;;;5.90;99.90;;;;;;5023735;28;20710;-74
2024/02/16 04:38:53;;;;;;;3.20;3.00;;;5.90;99.90;;;;;;5019707;28;20203;-74
2024/02/16 04:41:22;;;;;;;3.45;3.25;;;5.90;99.90;;;;;;5018930;28;20297;-75
2024/02/16 04:43:49;;;;;;;3.30;3.10;;;5.80;99.90;;;;;;5024136;28;20297;-74
2024/02/16 04:46:16;;;;;;;3.60;3.30;;;5.80;99.90;;;;;;5017608;28;20247;-75
2024/02/16 04:48:43;;;;;;;3.35;3.13;;;5.80;99.90;;;;;;5015835;28;20203;-75
2024/02/16 04:51:11;;;;;;;3.30;3.10;;;5.80;99.90;;;;;;5004302;28;20306;-74
2024/02/16 04:53:38;;;;;;;3.42;3.20;;;5.80;99.90;;;;;;5024294;28;20677;-74
2024/02/16 04:56:06;;;;;;;3.28;3.08;;;5.80;99.90;;;;;;5020710;28;20301;-74
2024/02/16 04:58:34;;;;;;;3.20;3.00;;;5.80;99.90;;;;;;5017798;28;20719;-74
2024/02/16 05:01:02;;;;;;;3.22;3.03;;;5.80;99.90;;;;;;5000805;28;20239;-75
2024/02/16 05:03:29;;;;;;;3.20;3.00;;;5.80;99.90;;;;;;5007690;28;20226;-74
2024/02/16 05:05:57;;;;;;;3.10;2.90;;;5.80;99.90;;;;;;5004549;28;20223;-75
2024/02/16 05:08:24;;;;;;;3.00;2.85;;;5.80;99.90;;;;;;5023323;28;20278;-75
2024/02/16 05:10:51;;;;;;;3.08;2.88;;;5.70;99.90;;;;;;5017680;28;20724;-75
2024/02/16 05:13:18;;;;;;;3.30;3.10;;;5.70;99.90;;;;;;5020975;28;20318;-75
2024/02/16 05:15:48;;;;;;;3.03;2.83;;;5.80;99.90;;;;;;5018072;28;20238;-75
2024/02/16 05:18:17;;;;;;;3.67;3.38;;;5.80;99.90;;;;;;5021319;28;20219;-75
2024/02/16 05:20:44;;;;;;;3.08;2.90;;;5.80;99.90;;;;;;5018942;28;20986;-76
2024/02/16 05:23:11;;;;;;;3.33;3.13;;;5.80;99.90;;;;;;5023036;28;20905;-76
2024/02/16 05:25:38;;;;;;;3.40;3.20;;;5.80;99.90;;;;;;5041637;28;20344;-75
2024/02/16 05:28:06;;;;;;;3.20;3.00;;;5.80;99.90;;;;;;5036474;28;20311;-75
2024/02/16 05:30:32;;;;;;;2.83;2.63;;;5.80;99.90;;;;;;5042787;28;20219;-75
2024/02/16 05:33:02;;;;;;;3.20;3.00;;;5.80;99.90;;;;;;5044710;28;20603;-75
2024/02/16 05:35:33;;;;;;;2.95;2.75;;;5.80;99.90;;;;;;5049171;28;20245;-75
2024/02/16 05:38:06;;;;;;;3.45;3.20;;;5.80;99.90;;;;;;5046726;28;20659;-74
2024/02/16 05:40:45;;;;;;;3.05;2.85;;;5.80;99.90;;;;;;5030042;28;20218;-75
2024/02/16 05:43:12;;;;;;;2.80;2.70;;;5.80;99.90;;;;;;5044475;28;20224;-75
2024/02/16 05:45:41;;;;;;;3.60;3.25;;;5.80;99.90;;;;;;5045215;28;20467;-75
2024/02/16 05:48:10;;;;;;;3.30;3.10;;;5.80;99.90;;;;;;5024686;28;20227;-75
2024/02/16 05:50:37;;;;;;;3.45;3.20;;;5.80;99.90;;;;;;5003803;28;20722;-75
2024/02/16 05:53:05;;;;;;;3.50;3.30;;;5.80;99.90;;;;;;5012140;28;20227;-75
2024/02/16 05:55:32;;;;;;;3.28;3.08;;;5.80;99.90;;;;;;5022934;28;20236;-75
2024/02/16 05:57:59;;;;;;;2.80;2.60;;;5.70;99.90;;;;;;5019171;28;20304;-75
2024/02/16 06:00:27;;;;;;;3.58;3.28;;;5.70;99.90;;;;;;5022351;28;20230;-75
2024/02/16 06:02:54;;;;;;;3.55;3.25;;;5.70;99.90;;;;;;5003458;28;20215;-74
2024/02/16 06:05:22;;;;;;;2.88;2.67;;;5.70;99.90;;;;;;5002917;28;20251;-74
2024/02/16 06:07:49;;;;;;;3.50;3.30;;;5.60;99.90;;;;;;5018237;28;20250;-74
2024/02/16 06:10:18;;;;;;;3.40;3.20;;;5.60;99.90;;;;;;5020685;28;20215;-75
2024/02/16 06:12:45;;;;;;;2.92;2.72;;;5.60;99.90;;;;;;5015948;28;20294;-73
2024/02/16 06:15:12;;;;;;;3.42;3.13;;;5.60;99.90;;;;;;5016581;28;20223;-74
2024/02/16 06:17:40;;;;;;;3.50;3.20;;;5.60;99.90;;;;;;5015377;28;20226;-75
2024/02/16 06:20:09;;;;;;;3.67;3.38;;;5.60;99.90;;;;;;5018648;28;20848;-75
2024/02/16 06:22:37;;;;;;;3.30;3.00;;;5.60;99.90;;;;;;5016299;28;20223;-74
2024/02/16 06:25:05;;;;;;;3.33;3.05;;;5.60;99.90;;;;;;5015570;28;20297;-74
2024/02/16 06:27:32;;;;;;;3.50;3.30;;;5.60;99.90;;;;;;5016924;28;20236;-74
2024/02/16 06:29:59;;;;;;;3.20;3.00;;;5.60;99.90;;;;;;4997547;28;20208;-74
2024/02/16 06:32:26;;;;;;;2.65;2.55;;;5.60;99.90;;;;;;5000324;28;20882;-74
2024/02/16 06:34:54;;;;;;;3.53;3.33;;;5.60;99.90;;;;;;5021277;28;20406;-73
2024/02/16 06:37:21;;;;;;;3.25;3.03;;;5.70;99.90;;;;;;5008547;28;20325;-73
2024/02/16 06:39:49;;;;;;;3.38;3.17;;;5.70;99.90;;;;;;5015042;28;20253;-76
2024/02/16 06:42:16;;;;;;;3.15;2.95;;;5.70;99.90;;;;;;5017754;28;20286;-74
2024/02/16 06:44:43;;;;;;;3.13;2.92;;;5.80;99.90;;;;;;5014589;28;20301;-72
2024/02/16 06:47:11;;;;;;;2.90;2.70;;;5.80;99.90;;;;;;5015943;28;20219;-73
2024/02/16 06:49:38;;;;;;;3.20;3.00;;;5.80;99.90;;;;;;5013624;28;20617;-72
2024/02/16 06:52:06;;;;;;;3.00;2.80;;;5.80;99.90;;;;;;5009559;28;20248;-72
2024/02/16 06:54:33;;;;;;;3.05;2.92;;;5.80;99.90;;;;;;5017267;28;20291;-72
2024/02/16 06:57:01;;;;;;;3.20;3.00;;;5.90;99.90;;;;;;4996226;28;20306;-72
2024/02/16 06:59:28;;;;;;;3.58;3.38;;;5.90;99.90;;;;;;5004186;28;20206;-73
2024/02/16 07:01:55;;;;;;;2.97;2.78;;;6.00;99.90;;;;;;5011531;28;20254;-72
2024/02/16 07:04:22;;;;;;;2.85;2.65;;;6.00;99.90;;;;;;5014979;28;20837;-73
2024/02/16 07:06:49;;;;;;;3.45;3.25;;;6.00;99.90;;;;;;5013426;28;20816;-72
2024/02/16 07:09:16;;;;;;;4.05;3.78;;;6.00;99.90;;;;;;5017483;28;20289;-73
2024/02/16 07:11:46;;;;;;;4.25;3.80;;;6.00;99.90;;;;;;5014048;28;20309;-73
2024/02/16 07:14:14;;;;;;;4.00;3.60;;;6.00;99.90;;;;;;5018102;28;20299;-73
2024/02/16 07:16:41;;;;;;;4.45;4.10;;;6.00;99.90;;;;;;5016154;28;20275;-73
2024/02/16 07:19:08;;;;;;;3.58;3.35;;;6.00;99.90;;;;;;5014955;28;20209;-72
2024/02/16 07:21:35;;;;;;;3.85;3.55;;;6.00;99.90;;;;;;5013947;28;20223;-73
2024/02/16 07:24:02;;;;;;;3.33;3.03;;;6.10;99.90;;;;;;5014558;28;20242;-72
2024/02/16 07:26:29;;;;;;;3.50;3.30;;;6.10;99.90;;;;;;5016510;28;20311;-72
2024/02/16 07:28:56;;;;;;;4.05;3.75;;;6.20;99.90;;;;;;5017748;28;20291;-73
2024/02/16 07:31:25;;;;;;;3.75;3.53;;;6.20;99.90;;;;;;5011717;28;20247;-73
2024/02/16 07:33:52;;;;;;;3.42;3.17;;;6.50;99.90;;;;;;5017643;28;20288;-73
2024/02/16 07:36:19;;;;;;;4.03;3.70;;;7.10;99.90;;;;;;5017667;28;20243;-73
2024/02/16 07:38:47;;;;;;;3.80;3.17;;;7.70;99.90;;;;;;5015148;28;20223;-73
2024/02/16 07:41:14;;;;;;;4.18;3.85;;;8.40;99.90;;;;;;5011787;28;20221;-73
2024/02/16 07:43:41;;;;;;;3.90;3.60;;;9.00;99.90;;;;;;5017294;28;20204;-73
2024/02/16 07:46:08;;;;;;;5.95;3.25;;;9.50;99.90;;;;;;5021443;28;20308;-73
2024/02/16 07:48:36;;;;;;;3.47;3.17;;;9.90;99.90;;;;;;5014710;28;20210;-73
2024/02/16 07:51:03;;;;;;;3.50;3.30;;;10.20;99.90;;;;;;5012933;28;20283;-73
2024/02/16 07:53:33;;;;;;;4.07;3.67;;;10.60;99.90;;;;;;5017511;28;20246;-73
2024/02/16 07:56:00;;;;;;;4.45;3.30;;;10.80;99.90;;;;;;5013611;28;20251;-73
2024/02/16 07:58:27;;;;;;;3.90;3.60;;;11.10;99.90;;;;;;5016706;28;20271;-73
2024/02/16 08:00:55;;;;;;;4.10;3.80;;;11.30;99.90;;;;;;5016478;28;20243;-73
2024/02/16 08:03:22;;;;;;;4.85;4.38;;;11.70;99.90;;;;;;5019460;28;20215;-73
2024/02/16 08:05:50;;;;;;;4.47;4.10;;;12.10;99.90;;;;;;5015421;28;20297;-73
2024/02/16 08:08:17;;;;;;;4.53;4.13;;;12.30;99.90;;;;;;5020677;28;20583;-73
2024/02/16 08:10:44;;;;;;;4.45;4.05;;;12.60;99.90;;;;;;5024576;28;20215;-73
2024/02/16 08:13:11;;;;;;;4.22;3.83;;;12.80;99.90;;;;;;5019604;28;20298;-73
2024/02/16 08:15:38;;;;;;;3.80;3.50;;;13.00;99.90;;;;;;5020154;28;20254;-73
2024/02/16 08:18:06;;;;;;;4.57;3.95;;;13.10;99.90;;;;;;5024748;28;20657;-73
2024/02/16 08:20:33;;;;;;;4.30;3.90;;;13.30;99.90;;;;;;5018206;28;20226;-73
2024/02/16 08:23:02;;;;;;;7.55;3.67;;;13.60;99.90;;;;;;5011208;28;20289;-73
2024/02/16 08:25:30;;;;;;;4.53;3.60;;;13.80;99.90;;;;;;5021451;28;20320;-73
2024/02/16 08:27:57;;;;;;;3.40;2.88;;;13.60;99.90;;;;;;5018974;28;20306;-73
2024/02/16 08:30:25;;;;;;;4.03;3.72;;;13.70;99.90;;;;;;5018482;28;20223;-73
2024/02/16 08:32:52;;;;;;;3.90;3.60;;;13.90;99.90;;;;;;5017699;28;20695;-73
2024/02/16 08:35:19;;;;;;;3.97;3.08;;;13.90;99.90;;;;;;5023806;28;20243;-73
2024/02/16 08:37:46;;;;;;;3.83;3.42;;;14.10;99.90;;;;;;5018812;28;20273;-73
2024/02/16 08:40:15;;;;;;;4.20;3.63;;;14.40;99.90;;;;;;5019883;28;20676;-73
2024/02/16 08:42:42;;;;;;;3.97;3.67;;;14.60;99.90;;;;;;5023990;28;20810;-73
2024/02/16 08:45:10;;;;;;;5.40;4.28;;;15.00;99.90;;;;;;5015016;28;20228;-73
2024/02/16 08:47:37;;;;;;;4.90;3.95;;;15.00;99.90;;;;;;5019436;28;20745;-73
2024/02/16 08:50:04;;;;;;;4.07;3.65;;;15.00;99.90;;;;;;5021243;28;20210;-73
2024/02/16 08:52:33;;;;;;;5.22;4.60;;;15.10;99.90;;;;;;5014360;28;20855;-73
2024/02/16 08:54:59;;;;;;;5.47;4.20;;;15.20;99.90;;;;;;5020374;28;20300;-73
2024/02/16 08:57:28;;;;;;;4.85;4.45;;;15.40;99.90;;;;;;5018566;28;20243;-74
2024/02/16 08:59:56;;;;;;;5.20;4.22;;;15.60;99.90;;;;;;5024477;28;20638;-73
2024/02/16 09:02:23;;;;;;;4.32;3.88;;;16.00;99.90;;;;;;5017355;28;20216;-73
2024/02/16 09:04:50;;;;;;;4.57;4.00;;;16.00;99.90;;;;;;5019184;28;20209;-73
2024/02/16 09:07:17;;;;;;;6.45;4.20;;;16.00;99.90;;;;;;5019450;28;21075;-73
2024/02/16 09:09:44;;;;;;;5.82;3.75;;;15.90;99.90;;;;;;5018602;28;20258;-73
2024/02/16 09:12:11;;;;;;;4.88;3.30;;;15.90;99.90;;;;;;5020355;28;20226;-73
2024/02/16 09:14:41;;;;;;;4.03;3.63;;;16.20;99.90;;;;;;5023806;28;20227;-74
2024/02/16 09:17:07;;;;;;;3.45;3.15;;;16.50;99.90;;;;;;5020163;28;20220;-74
2024/02/16 09:19:34;;;;;;;3.08;2.83;;;16.40;99.90;;;;;;5019010;28;20232;-73
2024/02/16 09:22:02;;;;;;;4.03;3.22;;;16.40;99.90;;;;;;5024562;28;20315;-74
2024/02/16 09:24:30;;;;;;;3.25;2.95;;;16.50;99.90;;;;;;5014659;28;20228;-74
2024/02/16 09:26:57;;;;;;;3.70;3.40;;;16.40;99.90;;;;;;5017042;28;20234;-74
2024/02/16 09:29:24;;;;;;;3.65;3.22;;;16.50;99.90;;;;;;5015619;28;20617;-74
2024/02/16 09:31:52;;;;;;;11.20;3.60;;;16.60;99.90;;;;;;5013392;28;20251;-74
2024/02/16 09:34:19;;;;;;;6.05;3.55;;;16.90;99.90;;;;;;5014840;28;20208;-74
2024/02/16 09:36:46;;;;;;;3.53;3.22;;;16.90;99.90;;;;;;5002511;28;20878;-74
2024/02/16 09:39:13;;;;;;;5.28;3.58;;;16.80;99.90;;;;;;4998961;28;20301;-73
2024/02/16 09:41:44;;;;;;;4.15;3.75;;;16.70;99.90;;;;;;5005161;28;21275;-75
2024/02/16 09:44:11;;;;;;;4.65;3.17;;;16.60;99.90;;;;;;5014061;28;20195;-74
2024/02/16 09:46:38;;;;;;;3.53;3.10;;;16.50;99.90;;;;;;5017919;28;20886;-74
2024/02/16 09:49:06;;;;;;;3.58;3.17;;;16.60;99.90;;;;;;5016978;28;20232;-74
2024/02/16 09:51:37;;;;;;;3.55;3.25;;;16.40;99.90;;;;;;5014394;28;20334;-74
2024/02/16 09:54:05;;;;;;;3.97;3.30;;;16.10;99.90;;;;;;5015566;28;20286;-74
2024/02/16 09:56:33;;;;;;;4.53;3.17;;;16.00;99.90;;;;;;5014731;28;20251;-74
2024/02/16 09:59:00;;;;;;;4.28;2.92;;;15.80;99.90;;;;;;5018074;28;20576;-74
2024/02/16 10:01:28;;;;;;;3.22;2.67;;;15.80;99.90;;;;;;5013044;28;20225;-74
2024/02/16 10:03:55;;;;;;;6.75;3.63;;;16.10;99.90;;;;;;5014561;28;20948;-74
2024/02/16 10:06:24;;;;;;;4.65;3.60;;;16.20;99.90;;;;;;5010895;28;20810;-74
2024/02/16 10:08:52;;;;;;;4.00;3.53;;;16.50;99.90;;;;;;5018674;28;20802;-74
2024/02/16 10:11:21;;;;;;;5.10;3.40;;;16.60;99.90;;;;;;5011395;28;20251;-74
2024/02/16 10:13:56;;;;;;;3.83;3.10;;;16.60;99.90;;;;;;5019955;28;20956;-74
2024/02/16 10:16:23;;;;;;;4.25;3.05;;;16.70;99.90;;;;;;5014011;28;20353;-74
2024/02/16 10:18:50;;;;;;;4.00;3.20;;;17.00;99.90;;;;;;5016818;28;20196;-74
2024/02/16 10:21:27;;;;;;;5.32;3.33;;;17.00;99.90;;;;;;5012418;28;20252;-75
2024/02/16 10:24:00;;;;;;;9.70;3.33;;;16.80;99.90;;;;;;5030208;28;20191;-75
2024/02/16 10:26:28;;;;;;;3.25;2.95;;;16.50;99.90;;;;;;5013113;28;20231;-75
2024/02/16 10:28:57;;;;;;;3.63;2.92;;;16.40;99.90;;;;;;5009975;28;20235;-75
2024/02/16 10:31:30;;;;;;;3.47;3.17;;;16.50;99.90;;;;;;5012129;28;20314;-75
2024/02/16 10:33:59;;;;;;;3.33;3.10;;;16.40;99.90;;;;;;5014694;28;20219;-74
2024/02/16 10:36:29;;;;;;;3.85;3.25;;;16.60;99.90;;;;;;5016371;28;20227;-74
2024/02/16 10:38:57;;;;;;;2.92;2.70;;;16.70;99.90;;;;;;5016336;28;20199;-75
2024/02/16 10:41:29;;;;;;;4.22;3.20;;;16.90;99.90;;;;;;5012899;28;20228;-76
2024/02/16 10:43:56;;;;;;;3.15;2.85;;;17.10;99.90;;;;;;5015045;28;20199;-75
2024/02/16 10:46:25;;;;;;;2.72;2.53;;;16.70;99.90;;;;;;5015078;28;20314;-75
2024/02/16 10:48:52;;;;;;;3.22;2.92;;;16.80;99.90;;;;;;5012149;28;20945;-76
2024/02/16 10:51:25;;;;;;;2.88;2.58;;;16.80;99.90;;;;;;5010344;28;20347;-75
2024/02/16 10:53:56;;;;;;;3.28;2.97;;;16.90;99.90;;;;;;5011590;28;20247;-75
2024/02/16 10:56:33;;;;;;;3.00;2.80;;;17.00;99.90;;;;;;5012889;28;20278;-75
2024/02/16 10:59:02;;;;;;;3.22;2.72;;;16.80;99.90;;;;;;5010045;28;20266;-75
2024/02/16 11:01:33;;;;;;;3.63;3.10;;;16.50;99.90;;;;;;5012254;28;20432;-74
2024/02/16 11:04:08;;;;;;;3.15;2.95;;;16.60;99.90;;;;;;5011800;28;20202;-75
2024/02/16 11:06:46;;;;;;;5.53;3.00;;;16.50;99.90;;;;;;5015405;28;20280;-75
2024/02/16 11:09:24;;;;;;;3.80;2.90;;;17.00;99.90;;;;;;5013637;28;20304;-74
2024/02/16 11:11:53;;;;;;;3.53;3.22;;;17.20;99.90;;;;;;5013335;28;20255;-74
2024/02/16 11:14:23;;;;;;;3.50;3.20;;;17.10;99.90;;;;;;5015844;28;20215;-74
2024/02/16 11:16:50;;;;;;;4.47;3.22;;;17.00;99.90;;;;;;5013687;28;20228;-74
2024/02/16 11:19:19;;;;;;;5.35;3.60;;;16.80;99.90;;;;;;5009420;28;20265;-74
2024/02/16 11:22:07;;;;;;;3.28;2.80;;;16.70;99.90;;;;;;5017641;28;20223;-74
2024/02/16 11:24:36;;;;;;;3.65;3.35;;;16.80;99.90;;;;;;5013482;28;20208;-74
2024/02/16 11:27:04;;;;;;;4.45;3.13;;;16.70;99.90;;;;;;5017495;28;20720;-74
2024/02/16 11:29:33;;;;;;;5.60;3.80;;;16.70;99.90;;;;;;5016793;28;20206;-73
2024/02/16 11:32:02;;;;;;;5.03;3.53;;;17.00;99.90;;;;;;5012749;28;20310;-73
2024/02/16 11:34:29;;;;;;;3.50;3.20;;;17.00;99.90;;;;;;5016638;28;20208;-74
2024/02/16 11:36:57;;;;;;;4.72;3.33;;;16.90;99.90;;;;;;5015782;28;20223;-73
2024/02/16 11:39:25;;;;;;;3.92;3.53;;;16.70;99.90;;;;;;5009958;28;20226;-74
2024/02/16 11:42:03;;;;;;;4.03;3.17;;;16.30;99.90;;;;;;5019727;28;20947;-73
2024/02/16 11:44:31;;;;;;;4.18;3.30;;;15.80;99.90;;;;;;5015648;28;21287;-73
2024/02/16 11:46:58;;;;;;;3.40;2.92;;;15.70;99.90;;;;;;5014443;28;20231;-73
2024/02/16 11:49:25;;;;;;;3.92;3.45;;;15.70;99.90;;;;;;5016816;28;20222;-73
2024/02/16 11:51:52;;;;;;;3.30;3.00;;;15.70;99.90;;;;;;5014427;28;20228;-73
2024/02/16 11:54:19;;;;;;;4.05;2.92;;;15.60;99.90;;;;;;5016300;28;20293;-73
2024/02/16 11:56:46;;;;;;;5.93;3.08;;;15.50;99.90;;;;;;5015175;28;20232;-74
2024/02/16 11:59:16;;;;;;;2.72;2.53;;;15.70;99.90;;;;;;5013335;28;20333;-74
2024/02/16 12:01:54;;;;;;;3.17;2.88;;;15.80;99.90;;;;;;5013179;28;20223;-74
2024/02/16 12:04:25;;;;;;;3.20;3.00;;;15.80;99.90;;;;;;5015830;28;20196;-74
2024/02/16 12:06:54;;;;;;;3.47;3.17;;;16.00;99.90;;;;;;5013481;28;20305;-75
2024/02/16 12:09:21;;;;;;;3.50;2.42;;;16.10;99.90;;;;;;5014009;28;22679;-74
2024/02/16 12:11:50;;;;;;;3.20;2.90;;;16.00;99.90;;;;;;5013109;28;20935;-73
2024/02/16 12:14:19;;;;;;;3.80;2.72;;;15.70;99.90;;;;;;5011581;28;20303;-74
2024/02/16 12:16:49;;;;;;;2.92;2.72;;;15.60;99.90;;;;;;5011222;28;20255;-74
2024/02/16 12:19:16;;;;;;;2.70;2.50;;;15.60;99.90;;;;;;5017846;28;20208;-74
2024/02/16 12:21:43;;;;;;;3.22;2.88;;;15.60;99.90;;;;;;5014926;28;20247;-74
2024/02/16 12:24:10;;;;;;;3.00;2.70;;;15.70;99.90;;;;;;5015808;28;20281;-74
2024/02/16 12:26:37;;;;;;;2.85;2.63;;;15.80;99.90;;;;;;5015137;28;20748;-74
2024/02/16 12:29:04;;;;;;;3.20;2.90;;;16.30;99.90;;;;;;5012561;28;20332;-74
2024/02/16 12:31:33;;;;;;;3.83;2.97;;;16.50;99.90;;;;;;5011584;28;20251;-74
2024/02/16 12:34:00;;;;;;;7.57;3.00;;;16.50;99.90;;;;;;5017860;28;20216;-73
2024/02/16 12:36:27;;;;;;;3.08;2.80;;;16.50;99.90;;;;;;5018367;28;20247;-75
2024/02/16 12:38:55;;;;;;;3.40;3.10;;;16.70;99.90;;;;;;5016658;28;20923;-78
2024/02/16 12:41:22;;;;;;;2.75;2.55;;;16.50;99.90;;;;;;5016886;28;20794;-73
2024/02/16 12:43:49;;;;;;;3.65;2.72;;;16.60;99.90;;;;;;5014741;28;20207;-73
2024/02/16 12:46:17;;;;;;;3.03;2.83;;;16.80;99.90;;;;;;5012043;28;20310;-74
2024/02/16 12:48:46;;;;;;;3.30;2.80;;;17.00;99.90;;;;;;5017997;28;20800;-73
2024/02/16 12:51:13;;;;;;;3.83;2.65;;;17.10;99.90;;;;;;5015726;28;20254;-73
2024/02/16 12:53:41;;;;;;;2.60;2.40;;;17.10;99.90;;;;;;5013329;28;20207;-74
2024/02/16 12:56:09;;;;;;;2.65;2.45;;;17.10;99.90;;;;;;5013673;28;20306;-73